Terminal Aerodrome Forecast
Issued by NWS Huntsville, AL

Home | Current Version | Previous Version | Text Only | Print | Product List | Glossary On
Versions: 1 2 3 4 5 6 7 8 9 10 11 12 13 14 15 16 17 18 19 20 21 22 23 24
000
FTUS44 KHUN 040520
TAFHSV
TAF
KHSV 040520Z 0406/0506 VRB03KT P6SM BKN250
      TEMPO 0410/0412 5SM BR
     FM041400 27005KT P6SM SCT050 SCT090 SCT250
     FM050000 VRB03KT P6SM SCT090 BKN250=

USA.gov is the U.S. government's official web portal to all federal, state and local government web resources and services.